Time;durP1;ratioP1;P1;durP2;ratioP2;P2;SDS_P1;SDS_P2;PMS_P1;PMS_P2;Temp;Humidity;BMP_temperature;BMP_pressure;BME280_temperature;BME280_humidity;BME280_pressure;Samples;Min_cycle;Max_cycle;Signal;HPM_P1;HPM_P2
2024/01/14 00:00:01;;;;;;;13.90;2.08;;;14.40;73.20;;;;;;4222686;27;20545;-58
2024/01/14 00:02:48;;;;;;;8.13;1.73;;;14.40;73.50;;;;;;4222720;27;20042;-58
2024/01/14 00:05:29;;;;;;;9.32;1.35;;;14.40;73.70;;;;;;4221797;27;20054;-58
2024/01/14 00:08:10;;;;;;;8.20;1.85;;;14.40;73.70;;;;;;4191159;27;20055;-59
2024/01/14 00:10:51;;;;;;;12.60;1.90;;;14.40;73.50;;;;;;4188525;28;20071;-59
2024/01/14 00:13:33;;;;;;;5.47;1.25;;;14.30;73.40;;;;;;4207828;27;20470;-57
2024/01/14 00:16:16;;;;;;;4.50;1.35;;;14.30;72.80;;;;;;4212003;27;20062;-58
2024/01/14 00:18:57;;;;;;;5.28;1.17;;;14.30;73.30;;;;;;4205490;27;20460;-57
2024/01/14 00:21:38;;;;;;;1.45;0.90;;;14.30;73.50;;;;;;4205480;27;20055;-58
2024/01/14 00:24:18;;;;;;;3.40;1.13;;;14.30;73.60;;;;;;4205000;27;20133;-59
2024/01/14 00:27:00;;;;;;;3.25;0.98;;;14.30;73.60;;;;;;4209362;27;20058;-59
2024/01/14 00:29:41;;;;;;;5.53;1.23;;;14.30;73.60;;;;;;4219173;27;20643;-59
2024/01/14 00:32:23;;;;;;;6.82;1.30;;;14.30;73.70;;;;;;4220281;27;20054;-59
2024/01/14 00:35:05;;;;;;;5.65;1.25;;;14.20;73.70;;;;;;4203588;28;20083;-59
2024/01/14 00:37:46;;;;;;;;;;;14.20;73.90;;;;;;4204880;28;20434;-54
2024/01/14 00:40:26;;;;;;;5.38;1.13;;;14.30;73.80;;;;;;4204660;28;19927;-50
2024/01/14 00:43:08;;;;;;;4.25;1.20;;;14.20;74.30;;;;;;4205119;28;20403;-50
2024/01/14 00:45:49;;;;;;;3.53;0.95;;;14.20;73.80;;;;;;4203619;28;20131;-51
2024/01/14 00:48:31;;;;;;;5.60;1.52;;;14.20;73.60;;;;;;4220571;27;20068;-59
2024/01/14 00:51:12;;;;;;;6.68;1.40;;;14.20;73.80;;;;;;4221355;27;20153;-58
2024/01/14 00:53:54;;;;;;;3.42;0.95;;;14.20;73.70;;;;;;4221695;27;20149;-58
2024/01/14 00:56:35;;;;;;;6.53;1.30;;;14.20;73.90;;;;;;4221348;27;20055;-58
2024/01/14 00:59:16;;;;;;;4.55;1.10;;;14.20;74.00;;;;;;4221208;27;20051;-58
2024/01/14 01:01:57;;;;;;;6.60;0.90;;;14.20;74.10;;;;;;4220952;27;20054;-57
2024/01/14 01:04:39;;;;;;;3.53;1.58;;;14.10;74.30;;;;;;4221048;27;20410;-58
2024/01/14 01:07:20;;;;;;;6.93;1.13;;;14.20;74.30;;;;;;4220701;27;20042;-59
2024/01/14 01:10:01;;;;;;;5.43;1.15;;;14.20;74.30;;;;;;4220768;27;20638;-59
2024/01/14 01:12:42;;;;;;;4.20;1.20;;;14.10;75.10;;;;;;4220601;27;20050;-59
2024/01/14 01:15:23;;;;;;;8.05;0.90;;;14.10;74.20;;;;;;4220342;27;20429;-59
2024/01/14 01:18:05;;;;;;;7.15;1.45;;;14.10;75.20;;;;;;4219273;27;20069;-59
2024/01/14 01:20:51;;;;;;;4.70;1.10;;;14.10;74.40;;;;;;4219933;27;20051;-59
2024/01/14 01:23:31;;;;;;;5.15;0.90;;;14.10;74.60;;;;;;4221088;27;20062;-58
2024/01/14 01:26:13;;;;;;;4.65;1.30;;;14.10;74.60;;;;;;4220692;27;20054;-58
2024/01/14 01:28:53;;;;;;;5.03;1.17;;;14.10;75.20;;;;;;4204361;28;20165;-59
2024/01/14 01:31:34;;;;;;;5.40;1.10;;;14.20;75.70;;;;;;4203346;28;20047;-58
2024/01/14 01:34:21;;;;;;;6.85;1.30;;;14.40;75.40;;;;;;4202839;28;20051;-53
2024/01/14 01:37:04;;;;;;;7.18;1.05;;;14.50;74.90;;;;;;4204044;28;20055;-55
2024/01/14 01:39:45;;;;;;;2.88;1.08;;;14.60;74.50;;;;;;4203960;28;20055;-52
2024/01/14 01:42:26;;;;;;;8.95;1.50;;;14.70;74.30;;;;;;4186893;28;20771;-52
2024/01/14 01:45:09;;;;;;;7.28;1.38;;;14.80;74.20;;;;;;4203767;28;20490;-53
2024/01/14 01:47:50;;;;;;;4.97;1.27;;;14.90;73.80;;;;;;4203494;28;20059;-55
2024/01/14 01:50:30;;;;;;;5.28;1.17;;;15.00;73.40;;;;;;4204291;28;20047;-54
2024/01/14 01:53:13;;;;;;;6.05;0.95;;;15.00;73.20;;;;;;4202794;27;20126;-53
2024/01/14 01:55:55;;;;;;;6.05;1.10;;;15.00;73.00;;;;;;4203301;28;20092;-53
2024/01/14 01:58:36;;;;;;;6.80;1.15;;;15.00;73.00;;;;;;4203461;28;20601;-51
2024/01/14 02:01:17;;;;;;;4.95;1.08;;;15.00;73.00;;;;;;4203893;28;20390;-56
2024/01/14 02:03:59;;;;;;;6.30;1.42;;;15.00;73.00;;;;;;4203309;28;20051;-55
2024/01/14 02:06:41;;;;;;;;;;;15.00;73.00;;;;;;4204423;28;20051;-54
2024/01/14 02:09:24;;;;;;;3.30;0.90;;;14.90;73.10;;;;;;4203485;28;19927;-55
2024/01/14 02:12:05;;;;;;;3.65;0.88;;;15.00;73.60;;;;;;4203868;28;20047;-52
2024/01/14 02:14:46;;;;;;;5.53;0.93;;;15.00;73.60;;;;;;4203352;28;20067;-53
2024/01/14 02:17:27;;;;;;;6.30;1.13;;;15.10;73.10;;;;;;4203556;28;20059;-52
2024/01/14 02:20:10;;;;;;;9.80;1.38;;;15.20;72.90;;;;;;4203231;28;20058;-52
2024/01/14 02:22:53;;;;;;;5.28;1.63;;;15.30;72.60;;;;;;4203840;28;20110;-56
2024/01/14 02:25:35;;;;;;;7.50;1.60;;;15.30;72.30;;;;;;4218622;27;20085;-54
2024/01/14 02:28:19;;;;;;;6.00;1.05;;;15.40;72.00;;;;;;4203057;28;20419;-55
2024/01/14 02:31:01;;;;;;;6.07;1.13;;;15.30;71.20;;;;;;4202678;28;20121;-52
2024/01/14 02:33:42;;;;;;;8.93;1.40;;;15.30;71.50;;;;;;4203386;28;20055;-55
2024/01/14 02:36:23;;;;;;;8.00;1.40;;;15.40;71.50;;;;;;4217512;27;20074;-53
2024/01/14 02:39:04;;;;;;;10.93;1.60;;;15.40;70.20;;;;;;4203552;28;20383;-59
2024/01/14 02:41:47;;;;;;;8.52;1.88;;;15.40;70.30;;;;;;4203132;28;20062;-60
2024/01/14 02:44:28;;;;;;;4.88;1.10;;;15.50;70.70;;;;;;4202340;28;20047;-53
2024/01/14 02:47:09;;;;;;;6.40;1.55;;;15.50;70.80;;;;;;4206717;27;20097;-55
2024/01/14 02:49:50;;;;;;;6.07;1.50;;;15.50;70.70;;;;;;4218606;27;20489;-59
2024/01/14 02:52:31;;;;;;;7.35;1.58;;;15.50;70.60;;;;;;4202091;28;20122;-59
2024/01/14 02:55:12;;;;;;;5.10;1.42;;;15.50;70.60;;;;;;4202983;28;20093;-59
2024/01/14 02:57:55;;;;;;;7.80;1.60;;;15.40;71.60;;;;;;4216389;27;20193;-59
2024/01/14 03:00:35;;;;;;;6.78;1.48;;;15.40;71.10;;;;;;4219974;27;20149;-59
2024/01/14 03:03:16;;;;;;;6.45;1.67;;;15.40;71.30;;;;;;4219490;27;20141;-59
2024/01/14 03:05:58;;;;;;;5.80;1.30;;;15.40;71.20;;;;;;4216122;28;20054;-59
2024/01/14 03:08:38;;;;;;;9.40;1.60;;;15.40;71.20;;;;;;4202910;27;20124;-58
2024/01/14 03:11:20;;;;;;;6.70;1.27;;;15.40;71.30;;;;;;4202956;28;20055;-59
2024/01/14 03:14:02;;;;;;;7.22;2.08;;;15.50;71.40;;;;;;4203688;28;20048;-59
2024/01/14 03:16:44;;;;;;;11.98;2.47;;;15.50;71.00;;;;;;4205807;27;20055;-59
2024/01/14 03:19:25;;;;;;;4.85;1.38;;;15.60;70.90;;;;;;4219456;27;20059;-59
2024/01/14 03:22:07;;;;;;;9.18;1.80;;;15.60;70.90;;;;;;4217827;27;20046;-59
2024/01/14 03:24:47;;;;;;;7.20;1.45;;;15.60;71.70;;;;;;4219784;27;20080;-59
2024/01/14 03:27:29;;;;;;;4.82;1.27;;;15.60;70.60;;;;;;4209869;27;20170;-59
2024/01/14 03:30:12;;;;;;;5.90;1.63;;;15.70;70.50;;;;;;4203148;28;20495;-59
2024/01/14 03:32:53;;;;;;;11.20;1.92;;;15.70;70.50;;;;;;4202625;28;20481;-59
2024/01/14 03:35:34;;;;;;;8.93;1.30;;;15.70;70.60;;;;;;4208248;27;20104;-59
2024/01/14 03:38:15;;;;;;;7.80;1.58;;;15.70;71.40;;;;;;4217700;27;20055;-59
2024/01/14 03:40:56;;;;;;;7.40;1.48;;;15.70;70.40;;;;;;4216341;27;20058;-59
2024/01/14 03:43:37;;;;;;;9.07;1.58;;;15.70;70.40;;;;;;4202997;28;20093;-59
2024/01/14 03:46:20;;;;;;;8.38;1.95;;;15.80;71.30;;;;;;4202654;28;20415;-59
2024/01/14 03:49:00;;;;;;;7.55;1.98;;;15.80;70.30;;;;;;4205604;28;20058;-59
2024/01/14 03:51:42;;;;;;;6.55;1.73;;;15.80;70.10;;;;;;4205783;28;20129;-59
2024/01/14 03:54:23;;;;;;;3.95;1.55;;;15.80;70.10;;;;;;4205971;28;20055;-59
2024/01/14 03:57:04;;;;;;;9.07;1.90;;;15.90;70.10;;;;;;4205705;28;20063;-59
2024/01/14 03:59:46;;;;;;;;;;;15.90;69.70;;;;;;4189097;28;20081;-59
2024/01/14 04:02:28;;;;;;;6.60;1.67;;;15.90;69.60;;;;;;4188716;28;19943;-59
2024/01/14 04:05:09;;;;;;;9.23;2.30;;;15.90;69.60;;;;;;4187749;28;20052;-59
2024/01/14 04:07:50;;;;;;;12.73;2.35;;;16.00;69.50;;;;;;4205148;28;20182;-59
2024/01/14 04:10:31;;;;;;;7.00;1.67;;;16.00;69.30;;;;;;4205361;28;20128;-60
2024/01/14 04:13:14;;;;;;;5.47;1.67;;;16.00;69.30;;;;;;4205462;28;20059;-59
2024/01/14 04:15:57;;;;;;;8.70;1.50;;;16.00;69.40;;;;;;4205571;28;20186;-57
2024/01/14 04:18:42;;;;;;;6.35;1.50;;;16.00;69.30;;;;;;4204979;28;20063;-59
2024/01/14 04:21:23;;;;;;;8.75;1.60;;;16.10;69.00;;;;;;4205526;28;20051;-59
2024/01/14 04:24:04;;;;;;;6.13;1.45;;;16.10;69.00;;;;;;4204898;27;20051;-59
2024/01/14 04:26:45;;;;;;;9.38;1.55;;;16.10;68.80;;;;;;4204627;28;20051;-59
2024/01/14 04:29:26;;;;;;;5.80;1.60;;;16.20;68.70;;;;;;4204975;28;20647;-59
2024/01/14 04:32:08;;;;;;;6.00;1.65;;;16.20;68.70;;;;;;4205205;28;20051;-59
2024/01/14 04:34:50;;;;;;;6.35;1.48;;;16.20;68.50;;;;;;4204765;28;20098;-58
2024/01/14 04:37:32;;;;;;;6.43;1.35;;;16.30;68.20;;;;;;4203521;28;20133;-59
2024/01/14 04:40:13;;;;;;;6.90;1.40;;;16.30;68.00;;;;;;4205242;28;20051;-59
2024/01/14 04:42:54;;;;;;;5.25;1.40;;;16.20;68.10;;;;;;4204954;28;20146;-58
2024/01/14 04:45:35;;;;;;;6.63;2.00;;;16.20;68.20;;;;;;4220644;27;20113;-59
2024/01/14 04:48:16;;;;;;;;;;;16.30;68.50;;;;;;4208023;28;20055;-58
2024/01/14 04:50:58;;;;;;;5.80;1.35;;;16.30;68.40;;;;;;4205235;27;20005;-60
2024/01/14 04:53:40;;;;;;;5.97;1.40;;;16.30;68.20;;;;;;4188550;28;20506;-60
2024/01/14 04:56:21;;;;;;;6.28;1.80;;;16.40;68.00;;;;;;4188383;28;20063;-59
2024/01/14 04:59:02;;;;;;;8.05;2.03;;;16.40;67.80;;;;;;4186851;28;20052;-60
2024/01/14 05:01:43;;;;;;;5.93;1.50;;;16.40;67.80;;;;;;4192372;28;20399;-59
2024/01/14 05:04:24;;;;;;;6.03;1.65;;;16.50;67.60;;;;;;4203484;27;20059;-60
2024/01/14 05:07:07;;;;;;;8.40;1.42;;;16.50;67.50;;;;;;4204110;27;20055;-59
2024/01/14 05:09:47;;;;;;;5.03;1.27;;;16.40;67.50;;;;;;4204438;27;20177;-58
2024/01/14 05:12:28;;;;;;;10.02;2.08;;;16.40;67.70;;;;;;4204436;27;20064;-59
2024/01/14 05:15:10;;;;;;;8.35;1.83;;;16.50;67.80;;;;;;4204401;28;20054;-60
2024/01/14 05:17:51;;;;;;;9.15;1.50;;;16.50;67.60;;;;;;4209832;27;20506;-60
2024/01/14 05:20:32;;;;;;;6.32;1.40;;;16.50;67.30;;;;;;4203365;28;20402;-59
2024/01/14 05:23:14;;;;;;;4.22;1.55;;;16.60;68.20;;;;;;4204511;28;20563;-59
2024/01/14 05:25:55;;;;;;;8.63;1.70;;;16.50;67.10;;;;;;4202061;28;20181;-60
2024/01/14 05:28:36;;;;;;;7.65;2.00;;;16.40;68.10;;;;;;4203242;27;20177;-53
2024/01/14 05:31:17;;;;;;;7.50;1.60;;;16.40;67.50;;;;;;4204436;27;20055;-51
2024/01/14 05:33:58;;;;;;;10.25;1.60;;;16.40;68.00;;;;;;4216263;27;20055;-52
2024/01/14 05:36:39;;;;;;;5.35;1.20;;;16.40;68.00;;;;;;4205021;27;20132;-50
2024/01/14 05:39:22;;;;;;;7.45;2.53;;;16.40;67.80;;;;;;4202875;27;20158;-54
2024/01/14 05:42:04;;;;;;;4.93;1.50;;;16.40;67.70;;;;;;4208219;27;20055;-52
2024/01/14 05:44:45;;;;;;;7.65;1.83;;;16.40;67.70;;;;;;4203738;28;20063;-53
2024/01/14 05:47:26;;;;;;;4.30;1.30;;;16.40;67.90;;;;;;4203864;28;20498;-56
2024/01/14 05:50:08;;;;;;;4.97;1.75;;;16.30;68.20;;;;;;4203602;28;20051;-55
2024/01/14 05:52:49;;;;;;;7.82;1.48;;;16.40;68.10;;;;;;4210175;27;20059;-52
2024/01/14 05:55:32;;;;;;;4.35;1.30;;;16.40;67.90;;;;;;4237494;27;20057;-55
2024/01/14 05:58:13;;;;;;;4.95;1.60;;;16.50;67.70;;;;;;4219497;27;20066;-53
2024/01/14 06:00:54;;;;;;;10.38;2.13;;;16.50;67.60;;;;;;4219682;27;20356;-52
2024/01/14 06:03:35;;;;;;;10.77;1.70;;;16.50;67.40;;;;;;4218933;27;20482;-52
2024/01/14 06:06:16;;;;;;;7.32;1.90;;;16.50;67.40;;;;;;4219707;27;20051;-54
2024/01/14 06:08:57;;;;;;;4.13;1.58;;;16.50;67.30;;;;;;4203023;28;20063;-55
2024/01/14 06:11:41;;;;;;;7.68;1.70;;;16.50;67.50;;;;;;4202559;28;20450;-55
2024/01/14 06:14:22;;;;;;;5.40;1.52;;;16.40;67.60;;;;;;4203288;28;20055;-52
2024/01/14 06:17:04;;;;;;;2.25;1.00;;;16.40;67.70;;;;;;4208455;27;20055;-55
2024/01/14 06:19:45;;;;;;;6.78;2.15;;;16.50;67.50;;;;;;4214754;27;20054;-54
2024/01/14 06:22:26;;;;;;;5.22;1.30;;;16.50;67.40;;;;;;4218197;27;20067;-55
2024/01/14 06:25:08;;;;;;;6.90;1.13;;;16.50;67.30;;;;;;4203032;28;20055;-54
2024/01/14 06:27:50;;;;;;;8.40;1.55;;;16.50;67.30;;;;;;4214865;27;20047;-52
2024/01/14 06:30:31;;;;;;;9.02;1.40;;;16.50;67.20;;;;;;4220002;27;20054;-52
2024/01/14 06:33:13;;;;;;;7.88;1.42;;;16.40;67.20;;;;;;4206747;27;20051;-53
2024/01/14 06:35:54;;;;;;;9.18;1.60;;;16.40;67.40;;;;;;4203712;28;20514;-52
2024/01/14 06:38:35;;;;;;;4.10;1.17;;;16.30;67.60;;;;;;4203129;28;20059;-60
2024/01/14 06:41:19;;;;;;;6.07;1.42;;;16.20;68.00;;;;;;4202635;28;20047;-51
2024/01/14 06:44:02;;;;;;;9.48;1.70;;;16.20;68.50;;;;;;4185812;28;20105;-54
2024/01/14 06:46:44;;;;;;;5.55;1.88;;;16.20;69.40;;;;;;4188489;27;20060;-59
2024/01/14 06:49:24;;;;;;;11.88;2.10;;;16.20;68.30;;;;;;4202651;27;20078;-59
2024/01/14 06:52:06;;;;;;;6.35;1.85;;;16.30;68.20;;;;;;4206676;27;20063;-59
2024/01/14 06:54:47;;;;;;;6.13;1.27;;;16.40;68.00;;;;;;4203334;28;20059;-51
2024/01/14 06:57:28;;;;;;;7.85;1.83;;;16.40;67.80;;;;;;4209724;27;20057;-53
2024/01/14 07:00:12;;;;;;;5.15;1.80;;;16.50;67.60;;;;;;4219884;27;20055;-50
2024/01/14 07:02:53;;;;;;;8.75;1.50;;;16.40;67.50;;;;;;4219983;27;20059;-53
2024/01/14 07:05:34;;;;;;;6.85;1.90;;;16.50;67.40;;;;;;4220440;27;20080;-51
2024/01/14 07:08:15;;;;;;;4.18;1.48;;;16.50;67.00;;;;;;4211093;27;20054;-53
2024/01/14 07:11:00;;;;;;;7.53;1.85;;;16.40;66.90;;;;;;4208828;27;20615;-58
2024/01/14 07:13:43;;;;;;;9.07;2.55;;;16.40;66.90;;;;;;4203514;28;20066;-58
2024/01/14 07:16:26;;;;;;;8.88;1.88;;;16.40;67.20;;;;;;4200878;28;20055;-59
2024/01/14 07:19:07;;;;;;;3.78;1.65;;;16.50;67.20;;;;;;4202622;28;20059;-54
2024/01/14 07:21:48;;;;;;;4.95;1.98;;;16.50;67.00;;;;;;4202089;28;20058;-56
2024/01/14 07:24:29;;;;;;;6.18;2.08;;;16.60;66.90;;;;;;4205784;28;20051;-53
2024/01/14 07:27:10;;;;;;;7.25;1.50;;;16.60;66.70;;;;;;4204678;28;20568;-51
2024/01/14 07:29:51;;;;;;;8.77;1.45;;;16.70;66.70;;;;;;4206265;28;20090;-55
2024/01/14 07:32:34;;;;;;;5.53;2.08;;;16.70;66.40;;;;;;4211056;27;20047;-50
2024/01/14 07:35:14;;;;;;;9.52;1.50;;;16.70;66.40;;;;;;4216307;27;20046;-56
2024/01/14 07:37:55;;;;;;;6.40;1.90;;;16.70;66.40;;;;;;4204006;28;20383;-54
2024/01/14 07:40:37;;;;;;;6.10;1.35;;;16.70;66.50;;;;;;4206333;27;20055;-51
2024/01/14 07:43:17;;;;;;;8.10;1.75;;;16.80;66.10;;;;;;4204987;28;20059;-55
2024/01/14 07:45:58;;;;;;;7.70;1.75;;;16.80;66.10;;;;;;4209837;27;20120;-54
2024/01/14 07:48:41;;;;;;;8.40;1.67;;;16.80;66.90;;;;;;4193309;27;20055;-54
2024/01/14 07:51:22;;;;;;;9.38;1.92;;;16.70;65.90;;;;;;4200821;27;20055;-53
2024/01/14 07:54:03;;;;;;;;;;;16.70;65.90;;;;;;4204414;27;20112;-59
2024/01/14 07:56:45;;;;;;;6.30;2.00;;;16.70;66.00;;;;;;4208334;27;19927;-51
2024/01/14 07:59:26;;;;;;;8.43;1.92;;;16.70;66.30;;;;;;4205417;27;20051;-52
2024/01/14 08:02:08;;;;;;;4.13;1.77;;;16.70;66.20;;;;;;4216140;27;20095;-55
2024/01/14 08:04:50;;;;;;;9.00;1.63;;;16.80;65.90;;;;;;4239224;27;20410;-59
2024/01/14 08:07:31;;;;;;;5.85;1.73;;;16.80;65.60;;;;;;4231824;27;20116;-59
2024/01/14 08:10:12;;;;;;;5.88;1.75;;;16.80;65.50;;;;;;4227124;27;20047;-59
2024/01/14 08:12:53;;;;;;;;;;;16.80;65.60;;;;;;4204238;28;20198;-59
2024/01/14 08:15:35;;;;;;;6.35;1.48;;;16.70;66.00;;;;;;4204849;28;19970;-59
2024/01/14 08:18:24;;;;;;;6.30;1.90;;;16.80;65.80;;;;;;4204759;28;20055;-59
2024/01/14 08:21:10;;;;;;;7.35;1.73;;;16.80;65.60;;;;;;4204899;28;20051;-53
2024/01/14 08:23:51;;;;;;;7.68;1.60;;;16.80;65.60;;;;;;4204994;28;20054;-54
2024/01/14 08:26:32;;;;;;;7.18;1.40;;;16.80;65.70;;;;;;4205089;27;20141;-51
2024/01/14 08:29:14;;;;;;;6.85;1.60;;;16.70;65.90;;;;;;4204916;27;20051;-51
2024/01/14 08:32:02;;;;;;;3.78;1.70;;;16.70;66.00;;;;;;4211089;27;20055;-53
2024/01/14 08:34:43;;;;;;;7.28;1.60;;;16.70;65.90;;;;;;4220802;27;20197;-51
2024/01/14 08:37:28;;;;;;;7.10;1.67;;;16.70;65.90;;;;;;4212911;27;20137;-59
2024/01/14 08:40:12;;;;;;;3.97;1.52;;;16.60;66.10;;;;;;4205332;28;20059;-53
2024/01/14 08:42:53;;;;;;;6.88;1.73;;;16.60;66.30;;;;;;4204378;28;20116;-53
2024/01/14 08:45:34;;;;;;;7.00;1.55;;;16.50;66.70;;;;;;4203960;28;20047;-60
2024/01/14 08:48:15;;;;;;;5.40;1.50;;;16.50;67.80;;;;;;4204282;28;20051;-59
2024/01/14 08:50:56;;;;;;;7.15;1.80;;;16.40;66.90;;;;;;4205925;27;20050;-59
2024/01/14 08:53:39;;;;;;;7.28;2.33;;;16.40;67.30;;;;;;4213902;27;20059;-59
2024/01/14 08:56:20;;;;;;;5.43;1.58;;;16.40;67.40;;;;;;4219457;27;20476;-59
2024/01/14 08:59:02;;;;;;;7.78;1.45;;;16.40;67.40;;;;;;4188002;28;20059;-60
2024/01/14 09:01:43;;;;;;;7.18;1.45;;;16.30;67.30;;;;;;4200138;27;20123;-59
2024/01/14 09:04:24;;;;;;;7.63;1.55;;;16.30;67.20;;;;;;4221316;27;20047;-59
2024/01/14 09:07:05;;;;;;;8.52;1.98;;;16.30;67.50;;;;;;4219005;27;20544;-60
2024/01/14 09:09:48;;;;;;;4.60;1.52;;;16.20;67.60;;;;;;4221236;27;20395;-60
2024/01/14 09:12:30;;;;;;;4.75;1.63;;;16.30;68.00;;;;;;4220905;27;20062;-59
2024/01/14 09:15:11;;;;;;;5.28;1.67;;;16.20;67.80;;;;;;4226892;27;20065;-60
2024/01/14 09:17:52;;;;;;;12.90;1.98;;;16.30;67.80;;;;;;4214171;27;20115;-61
2024/01/14 09:20:33;;;;;;;10.55;1.48;;;16.20;67.80;;;;;;4221372;27;20095;-60
2024/01/14 09:23:14;;;;;;;5.57;1.98;;;16.20;68.10;;;;;;4208497;27;20047;-60
2024/01/14 09:25:57;;;;;;;6.95;1.55;;;16.20;68.30;;;;;;4204649;27;20055;-60
2024/01/14 09:28:38;;;;;;;4.68;1.48;;;16.20;68.20;;;;;;4220793;27;20096;-60
2024/01/14 09:31:19;;;;;;;5.30;1.40;;;16.10;68.30;;;;;;4218511;27;20426;-60
2024/01/14 09:34:00;;;;;;;;;;;16.10;68.40;;;;;;4213107;27;20059;-60
2024/01/14 09:36:41;;;;;;;5.07;2.15;;;16.10;68.70;;;;;;4202456;28;19927;-59
2024/01/14 09:39:23;;;;;;;5.35;1.45;;;16.10;68.80;;;;;;4203298;28;20051;-60
2024/01/14 09:42:14;;;;;;;6.07;1.67;;;16.10;68.80;;;;;;4203969;28;20051;-59
2024/01/14 09:45:01;;;;;;;3.63;0.98;;;16.20;68.90;;;;;;4202576;27;20072;-57
2024/01/14 09:47:45;;;;;;;4.55;1.30;;;16.50;68.00;;;;;;4202884;28;20055;-59
2024/01/14 09:50:26;;;;;;;5.88;1.30;;;17.10;66.30;;;;;;4211761;27;20065;-60
2024/01/14 09:53:09;;;;;;;;;;;17.60;64.50;;;;;;4202764;28;20058;-59
2024/01/14 09:55:52;;;;;;;5.30;1.67;;;18.10;62.60;;;;;;4204154;27;20355;-60
2024/01/14 09:58:35;;;;;;;4.03;1.00;;;18.60;60.90;;;;;;4186819;27;20063;-60
2024/01/14 10:01:21;;;;;;;4.72;1.70;;;19.00;59.60;;;;;;4186678;27;20142;-60
2024/01/14 10:04:05;;;;;;;3.47;1.38;;;19.30;58.80;;;;;;4202992;27;20411;-58
2024/01/14 10:06:47;;;;;;;8.52;2.90;;;19.50;57.90;;;;;;4191365;27;20079;-50
2024/01/14 10:09:29;;;;;;;7.53;1.55;;;19.80;58.10;;;;;;4202994;27;20054;-49
2024/01/14 10:12:10;;;;;;;4.05;1.45;;;19.80;57.00;;;;;;4203640;27;20817;-49
2024/01/14 10:14:59;;;;;;;;;;;19.90;56.80;;;;;;4203761;28;20047;-51
2024/01/14 10:17:40;;;;;;;5.10;1.75;;;19.90;56.80;;;;;;4200787;28;19951;-51
2024/01/14 10:20:21;;;;;;;3.65;1.40;;;19.80;57.00;;;;;;4217183;27;20074;-50
2024/01/14 10:23:02;;;;;;;7.88;1.58;;;19.60;57.20;;;;;;4219643;27;20066;-50
2024/01/14 10:25:43;;;;;;;8.73;2.67;;;19.60;57.20;;;;;;4215642;27;20525;-55
2024/01/14 10:28:24;;;;;;;8.50;1.75;;;19.50;58.20;;;;;;4203386;28;20052;-53
2024/01/14 10:31:07;;;;;;;6.22;1.58;;;19.30;58.60;;;;;;4203084;28;20513;-55
2024/01/14 10:33:50;;;;;;;8.48;2.55;;;19.20;59.20;;;;;;4206207;27;20733;-57
2024/01/14 10:36:33;;;;;;;8.93;2.20;;;19.20;59.00;;;;;;4213220;27;20105;-57
2024/01/14 10:39:14;;;;;;;3.78;1.45;;;19.20;58.40;;;;;;4214086;27;20058;-58
2024/01/14 10:41:55;;;;;;;4.68;1.98;;;19.20;58.20;;;;;;4236986;27;20495;-59
2024/01/14 10:44:37;;;;;;;4.60;1.70;;;19.20;57.50;;;;;;4225289;27;20794;-59
2024/01/14 10:47:20;;;;;;;;;;;19.30;56.70;;;;;;4202653;27;20089;-58
2024/01/14 10:50:01;;;;;;;7.45;1.13;;;19.30;56.30;;;;;;4202173;27;20270;-58
2024/01/14 10:52:45;;;;;;;;;;;19.30;55.90;;;;;;4202139;27;20055;-58
2024/01/14 10:55:35;;;;;;;3.88;2.15;;;19.40;55.70;;;;;;4208331;27;19967;-58
2024/01/14 10:58:26;;;;;;;5.25;1.25;;;19.40;55.10;;;;;;4210600;27;20129;-58
2024/01/14 11:01:10;;;;;;;4.93;1.58;;;19.40;54.60;;;;;;4205906;27;20071;-56
2024/01/14 11:03:54;;;;;;;5.75;1.65;;;19.40;54.30;;;;;;4189962;28;20113;-58
2024/01/14 11:06:38;;;;;;;3.83;1.30;;;19.40;53.90;;;;;;4205574;28;20058;-51
2024/01/14 11:09:19;;;;;;;4.88;1.42;;;19.30;53.70;;;;;;4205500;28;20185;-51
2024/01/14 11:12:08;;;;;;;1.83;1.15;;;19.20;53.80;;;;;;4220497;27;20058;-51
2024/01/14 11:14:57;;;;;;;7.13;1.73;;;19.00;54.20;;;;;;4222483;27;20069;-51
2024/01/14 11:17:46;;;;;;;4.63;1.42;;;19.00;54.20;;;;;;4220306;27;20139;-51
2024/01/14 11:20:32;;;;;;;3.22;1.30;;;19.00;53.70;;;;;;4206604;28;20679;-57
2024/01/14 11:23:21;;;;;;;4.85;1.42;;;19.00;53.60;;;;;;4205814;28;20050;-52
2024/01/14 11:26:03;;;;;;;9.63;1.70;;;19.10;53.30;;;;;;4210919;27;20100;-58
2024/01/14 11:28:44;;;;;;;;;;;19.20;53.40;;;;;;4218283;27;20059;-58
2024/01/14 11:32:05;;;;;;;6.25;1.40;;;19.20;53.30;;;;;;4223033;27;20287;-51
2024/01/14 11:34:59;;;;;;;3.75;1.20;;;19.20;52.90;;;;;;4226041;27;20050;-54
2024/01/14 11:37:44;;;;;;;6.85;1.20;;;19.30;52.80;;;;;;4220621;27;20092;-51
2024/01/14 11:40:29;;;;;;;3.25;1.13;;;19.30;53.00;;;;;;4210745;27;20101;-50
2024/01/14 11:43:13;;;;;;;4.65;1.77;;;19.30;52.80;;;;;;4222196;27;20055;-57
2024/01/14 11:45:54;;;;;;;11.60;1.55;;;19.30;52.90;;;;;;4196181;27;20066;-51
2024/01/14 11:48:35;;;;;;;4.28;1.50;;;19.30;52.90;;;;;;4204649;27;20116;-50
2024/01/14 11:51:17;;;;;;;8.13;1.50;;;19.20;53.00;;;;;;4209882;27;20161;-50
2024/01/14 11:54:00;;;;;;;;;;;19.10;53.80;;;;;;4205899;27;20071;-54
2024/01/14 11:56:41;;;;;;;3.10;0.82;;;19.00;54.80;;;;;;4216232;27;19927;-60
2024/01/14 11:59:22;;;;;;;0.85;0.85;;;18.90;55.50;;;;;;4205106;27;20095;-59
2024/01/14 12:02:15;;;;;;;2.38;1.27;;;18.90;56.10;;;;;;4209315;27;20177;-56
2024/01/14 12:04:56;;;;;;;3.05;1.10;;;19.00;56.40;;;;;;4220854;27;20153;-52
2024/01/14 12:07:40;;;;;;;4.45;1.27;;;19.10;56.50;;;;;;4221210;27;20584;-51
2024/01/14 12:10:22;;;;;;;4.10;1.35;;;19.20;55.90;;;;;;4212355;27;20169;-52
2024/01/14 12:13:06;;;;;;;4.45;1.50;;;19.30;55.80;;;;;;4221709;27;20058;-52
2024/01/14 12:15:48;;;;;;;4.57;1.85;;;19.30;55.80;;;;;;4238705;27;20562;-52
2024/01/14 12:18:41;;;;;;;4.15;1.73;;;19.40;55.80;;;;;;4230905;27;20050;-52
2024/01/14 12:21:26;;;;;;;5.22;1.33;;;19.50;55.60;;;;;;4219759;27;20050;-59
2024/01/14 12:24:12;;;;;;;5.60;1.20;;;19.50;55.40;;;;;;4220940;27;20103;-60
2024/01/14 12:26:57;;;;;;;7.75;2.58;;;19.60;55.10;;;;;;4210284;27;20059;-62
2024/01/14 12:29:39;;;;;;;5.65;0.98;;;19.60;55.00;;;;;;4220680;27;20042;-61
2024/01/14 12:32:19;;;;;;;7.03;1.33;;;19.60;55.00;;;;;;4221835;27;20501;-60
2024/01/14 12:35:00;;;;;;;6.13;1.30;;;19.60;55.60;;;;;;4209713;27;20059;-52
2024/01/14 12:37:42;;;;;;;2.80;1.40;;;19.60;54.10;;;;;;4213667;27;20063;-50
2024/01/14 12:40:23;;;;;;;6.15;1.30;;;19.60;54.30;;;;;;4218707;27;20076;-51
2024/01/14 12:43:07;;;;;;;4.78;1.30;;;19.60;54.80;;;;;;4220335;27;20108;-52
2024/01/14 12:45:49;;;;;;;4.13;1.48;;;19.60;55.00;;;;;;4219709;27;20062;-56
2024/01/14 12:48:30;;;;;;;4.32;1.02;;;19.70;54.80;;;;;;4221377;27;20410;-53
2024/01/14 12:51:11;;;;;;;;;;;19.70;54.00;;;;;;4220646;27;20043;-54
2024/01/14 12:53:54;;;;;;;4.18;1.02;;;19.70;53.60;;;;;;4221287;27;20291;-54
2024/01/14 12:56:37;;;;;;;3.50;1.05;;;19.70;53.50;;;;;;4204315;28;20127;-54
2024/01/14 12:59:19;;;;;;;3.50;0.95;;;19.70;53.70;;;;;;4218221;27;20046;-59
2024/01/14 13:02:01;;;;;;;3.80;1.40;;;19.70;53.20;;;;;;4238578;27;20066;-57
2024/01/14 13:04:42;;;;;;;2.13;0.90;;;19.70;53.10;;;;;;4236068;27;20062;-57
2024/01/14 13:07:24;;;;;;;3.97;1.10;;;19.60;53.30;;;;;;4217516;27;20059;-60
2024/01/14 13:10:08;;;;;;;4.13;1.30;;;19.60;53.30;;;;;;4215322;27;20042;-59
2024/01/14 13:12:49;;;;;;;3.22;0.93;;;19.50;53.60;;;;;;4203111;28;20063;-59
2024/01/14 13:15:32;;;;;;;1.90;1.20;;;19.50;53.90;;;;;;4225886;27;20058;-58
2024/01/14 13:18:13;;;;;;;4.43;1.05;;;19.50;53.80;;;;;;4220849;27;20118;-53
2024/01/14 13:20:55;;;;;;;4.45;1.15;;;19.50;53.70;;;;;;4221023;27;20528;-52
2024/01/14 13:23:36;;;;;;;1.98;1.05;;;19.50;54.60;;;;;;4221264;27;20054;-54
2024/01/14 13:26:17;;;;;;;2.65;1.02;;;19.40;55.20;;;;;;4237793;27;20081;-54
2024/01/14 13:28:59;;;;;;;1.52;0.60;;;19.40;55.40;;;;;;4236729;27;20070;-50
2024/01/14 13:31:42;;;;;;;2.53;1.40;;;19.40;55.40;;;;;;4238094;27;20054;-53
2024/01/14 13:34:24;;;;;;;0.57;0.55;;;19.40;55.40;;;;;;4210311;27;20051;-59
2024/01/14 13:37:05;;;;;;;2.92;1.05;;;19.40;55.30;;;;;;4203944;28;20051;-58
2024/01/14 13:39:46;;;;;;;2.45;0.90;;;19.40;55.40;;;;;;4203978;28;20063;-52
2024/01/14 13:42:27;;;;;;;2.92;0.70;;;19.40;55.60;;;;;;4202169;28;20098;-52
2024/01/14 13:45:09;;;;;;;;;;;19.40;55.70;;;;;;4204298;28;20093;-54
2024/01/14 13:47:52;;;;;;;3.38;0.80;;;19.30;55.90;;;;;;4203488;28;19935;-54
2024/01/14 13:50:33;;;;;;;1.48;0.82;;;19.30;55.90;;;;;;4202913;28;20047;-53
2024/01/14 13:53:14;;;;;;;2.58;0.77;;;19.20;56.10;;;;;;4208808;27;20119;-52
2024/01/14 13:55:55;;;;;;;3.63;0.70;;;19.20;56.40;;;;;;4220605;27;20054;-50
2024/01/14 13:58:36;;;;;;;2.10;0.52;;;19.20;56.40;;;;;;4220110;27;20119;-50
2024/01/14 14:01:17;;;;;;;2.08;0.70;;;19.30;56.30;;;;;;4220203;27;20074;-53
2024/01/14 14:04:00;;;;;;;2.08;0.85;;;19.30;56.10;;;;;;4220335;27;20090;-50
2024/01/14 14:06:42;;;;;;;2.42;1.02;;;19.30;56.10;;;;;;4219399;27;20076;-54